Time;durP1;ratioP1;P1;durP2;ratioP2;P2;SDS_P1;SDS_P2;PMS_P1;PMS_P2;Temp;Humidity;BMP_temperature;BMP_pressure;BME280_temperature;BME280_humidity;BME280_pressure;Samples;Min_cycle;Max_cycle;Signal;HPM_P1;HPM_P2
2023/10/20 00:00:14;;;;;;;18.83;13.57;;;;;;;14.15;100.00;97623.75;5064838;28;20022;-72
2023/10/20 00:02:43;;;;;;;18.90;13.70;;;;;;;14.17;100.00;97618.22;5056207;28;20052;-73
2023/10/20 00:05:13;;;;;;;23.60;14.50;;;;;;;14.19;100.00;97613.59;5059866;28;20128;-73
2023/10/20 00:07:41;;;;;;;18.88;13.70;;;;;;;14.16;100.00;97612.09;5065670;28;20234;-73
2023/10/20 00:10:11;;;;;;;21.00;14.13;;;;;;;14.12;100.00;97612.59;5057658;28;20045;-73
2023/10/20 00:12:39;;;;;;;19.88;13.60;;;;;;;14.16;100.00;97625.41;5051095;28;20057;-72
2023/10/20 00:15:13;;;;;;;20.05;14.13;;;;;;;14.09;100.00;97621.72;5061108;28;20040;-72
2023/10/20 00:17:42;;;;;;;21.85;15.65;;;;;;;14.16;100.00;97619.25;5060156;28;20068;-73
2023/10/20 00:20:12;;;;;;;23.15;14.18;;;;;;;14.15;100.00;97622.91;5067271;28;20047;-72
2023/10/20 00:22:41;;;;;;;18.63;13.18;;;;;;;14.13;100.00;97615.09;5057947;28;20033;-73
2023/10/20 00:25:11;;;;;;;19.60;13.68;;;;;;;14.17;100.00;97620.91;5053237;28;20063;-73
2023/10/20 00:27:41;;;;;;;19.35;12.77;;;;;;;14.12;100.00;97599.28;5068572;28;20080;-73
2023/10/20 00:30:10;;;;;;;17.83;12.98;;;;;;;14.19;100.00;97609.09;5042601;28;20144;-72
2023/10/20 00:32:40;;;;;;;20.48;13.93;;;;;;;14.20;100.00;97608.09;5035551;28;20049;-73
2023/10/20 00:35:09;;;;;;;19.67;14.00;;;;;;;14.18;100.00;97590.63;5054490;28;20052;-73
2023/10/20 00:37:38;;;;;;;21.02;13.88;;;;;;;14.19;100.00;97584.31;5059145;28;20037;-73
2023/10/20 00:40:09;;;;;;;18.90;13.60;;;;;;;14.20;100.00;97578.00;5058479;28;20094;-73
2023/10/20 00:42:38;;;;;;;15.68;12.18;;;;;;;14.19;100.00;97574.50;5063936;28;20045;-73
2023/10/20 00:45:08;;;;;;;16.33;12.40;;;;;;;14.05;100.00;97559.16;5073513;28;20040;-73
2023/10/20 00:47:39;;;;;;;19.38;12.90;;;;;;;14.16;100.00;97566.03;5060223;28;20151;-73
2023/10/20 00:50:11;;;;;;;16.52;12.00;;;;;;;14.13;100.00;97566.34;5061988;28;20064;-73
2023/10/20 00:52:43;;;;;;;21.23;14.05;;;;;;;14.12;100.00;97560.19;5055342;28;20481;-73
2023/10/20 00:55:14;;;;;;;22.23;14.05;;;;;;;14.08;100.00;97547.38;5064436;28;20048;-73
2023/10/20 00:57:44;;;;;;;19.75;13.45;;;;;;;14.07;100.00;97556.34;5060522;28;20124;-73
2023/10/20 01:00:13;;;;;;;20.60;14.13;;;;;;;14.10;100.00;97548.88;5064233;28;20036;-73
2023/10/20 01:02:41;;;;;;;17.92;13.30;;;;;;;14.11;100.00;97550.56;5059287;28;20040;-73
2023/10/20 01:05:14;;;;;;;20.02;13.27;;;;;;;14.09;100.00;97544.56;5059919;28;20101;-73
2023/10/20 01:07:44;;;;;;;18.38;13.43;;;;;;;14.07;100.00;97537.72;5058972;28;20486;-73
2023/10/20 01:10:13;;;;;;;19.63;13.10;;;;;;;14.07;100.00;97538.56;5050347;28;20052;-75
2023/10/20 01:12:41;;;;;;;21.90;14.30;;;;;;;14.05;100.00;97538.72;5057687;28;20041;-73
2023/10/20 01:15:11;;;;;;;21.25;14.70;;;;;;;14.00;100.00;97537.56;5057260;28;20044;-73
2023/10/20 01:17:39;;;;;;;20.77;13.23;;;;;;;13.97;100.00;97535.22;5058088;28;20041;-73
2023/10/20 01:20:09;;;;;;;22.60;14.98;;;;;;;13.95;100.00;97534.53;5064603;28;20103;-73
2023/10/20 01:22:36;;;;;;;21.65;14.90;;;;;;;13.96;100.00;97537.03;5056749;28;20858;-73
2023/10/20 01:25:07;;;;;;;26.25;16.38;;;;;;;13.96;100.00;97544.19;5059822;28;20527;-73
2023/10/20 01:27:35;;;;;;;21.88;14.73;;;;;;;13.85;100.00;97515.25;5045834;28;20540;-73
2023/10/20 01:30:03;;;;;;;20.80;14.38;;;;;;;13.94;100.00;97524.91;5061320;28;20052;-73
2023/10/20 01:32:31;;;;;;;25.95;16.88;;;;;;;13.95;100.00;97529.22;5063082;28;20416;-73
2023/10/20 01:35:00;;;;;;;31.08;18.25;;;;;;;13.88;100.00;97521.06;5058104;28;20036;-73
2023/10/20 01:37:28;;;;;;;24.73;17.10;;;;;;;13.67;100.00;97475.47;5061868;28;20492;-73
2023/10/20 01:39:56;;;;;;;22.58;15.50;;;;;;;13.86;100.00;97503.59;5047110;28;20041;-73
2023/10/20 01:42:25;;;;;;;33.40;18.70;;;;;;;13.83;100.00;97494.13;5067663;28;20048;-73
2023/10/20 01:44:53;;;;;;;22.95;15.23;;;;;;;13.83;100.00;97491.47;5062966;28;20044;-73
2023/10/20 01:47:21;;;;;;;30.02;18.35;;;;;;;13.82;100.00;97495.13;5059718;28;20052;-73
2023/10/20 01:49:49;;;;;;;26.77;17.42;;;;;;;13.81;100.00;97493.44;5063031;28;20093;-73
2023/10/20 01:52:17;;;;;;;26.85;16.30;;;;;;;13.81;100.00;97488.13;5057317;28;20053;-73
2023/10/20 01:54:45;;;;;;;27.75;16.67;;;;;;;13.77;100.00;97473.50;5056373;28;20087;-73
2023/10/20 01:57:13;;;;;;;26.70;16.38;;;;;;;13.73;100.00;97460.66;5057297;28;20497;-73
2023/10/20 01:59:42;;;;;;;25.83;16.27;;;;;;;13.79;100.00;97468.84;5053296;28;20041;-73
2023/10/20 02:02:11;;;;;;;30.70;17.80;;;;;;;13.73;100.00;97448.22;5063200;28;20501;-73
2023/10/20 02:04:39;;;;;;;31.52;17.15;;;;;;;13.79;100.00;97450.22;5039178;28;20051;-73
2023/10/20 02:07:07;;;;;;;24.20;15.80;;;;;;;13.80;100.00;97443.06;5062437;28;20049;-73
2023/10/20 02:09:34;;;;;;;26.02;16.77;;;;;;;13.81;100.00;97444.75;5056750;28;20051;-73
2023/10/20 02:12:04;;;;;;;25.35;16.85;;;;;;;13.80;100.00;97432.44;5057490;28;20539;-73
2023/10/20 02:14:33;;;;;;;23.80;14.98;;;;;;;13.82;100.00;97435.78;5054596;28;20049;-73
2023/10/20 02:17:02;;;;;;;24.55;15.02;;;;;;;13.75;100.00;97413.47;5063073;28;20052;-73
2023/10/20 02:19:31;;;;;;;26.88;16.40;;;;;;;13.74;100.00;97399.34;5063889;28;20045;-73
2023/10/20 02:21:59;;;;;;;26.55;16.15;;;;;;;13.80;100.00;97406.69;5077345;28;20419;-72
2023/10/20 02:24:27;;;;;;;20.60;14.82;;;;;;;13.78;100.00;97394.53;5059135;28;20484;-72
2023/10/20 02:26:55;;;;;;;22.67;15.32;;;;;;;13.82;100.00;97393.22;5059793;28;20048;-72
2023/10/20 02:29:23;;;;;;;22.95;14.82;;;;;;;13.78;100.00;97389.22;5061708;28;20051;-73
2023/10/20 02:31:51;;;;;;;23.33;15.48;;;;;;;13.76;100.00;97385.88;5062712;28;20052;-72
2023/10/20 02:34:20;;;;;;;32.17;17.33;;;;;;;13.82;100.00;97383.41;5048539;28;20044;-72
2023/10/20 02:36:49;;;;;;;24.88;15.95;;;;;;;13.81;100.00;97370.28;5066585;28;20525;-72
2023/10/20 02:39:17;;;;;;;24.25;15.48;;;;;;;13.81;100.00;97375.59;5064515;28;20071;-74
2023/10/20 02:41:44;;;;;;;24.05;15.57;;;;;;;13.76;100.00;97348.66;5066653;28;20098;-72
2023/10/20 02:44:13;;;;;;;25.52;16.55;;;;;;;13.74;100.00;97346.16;5049341;28;20033;-73
2023/10/20 02:46:41;;;;;;;22.52;15.77;;;;;;;13.70;100.00;97347.47;5058415;28;20044;-73
2023/10/20 02:49:09;;;;;;;23.23;16.65;;;;;;;13.76;100.00;97359.28;5061615;28;20056;-73
2023/10/20 02:51:39;;;;;;;27.23;17.77;;;;;;;13.80;100.00;97364.13;5058834;28;20055;-72
2023/10/20 02:54:09;;;;;;;25.52;17.02;;;;;;;13.81;100.00;97354.31;5050617;28;20045;-73
2023/10/20 02:56:37;;;;;;;28.25;17.27;;;;;;;13.75;100.00;97329.22;5058764;28;20041;-73
2023/10/20 02:59:05;;;;;;;28.88;18.23;;;;;;;13.75;100.00;97336.34;5062343;28;20103;-73
2023/10/20 03:01:33;;;;;;;27.85;17.52;;;;;;;13.78;100.00;97342.19;5062642;28;20068;-73
2023/10/20 03:04:01;;;;;;;23.73;15.68;;;;;;;13.77;100.00;97337.84;5056282;28;20048;-73
2023/10/20 03:06:28;;;;;;;24.75;16.13;;;;;;;13.74;100.00;97330.19;5062905;28;20045;-74
2023/10/20 03:08:58;;;;;;;26.45;18.77;;;;;;;13.79;100.00;97325.22;5061105;28;20057;-73
2023/10/20 03:11:25;;;;;;;22.88;17.23;;;;;;;13.73;100.00;97309.09;5060967;28;20045;-73
2023/10/20 03:13:53;;;;;;;26.38;17.65;;;;;;;13.79;100.00;97316.41;5056925;28;20044;-74
2023/10/20 03:16:21;;;;;;;29.48;18.42;;;;;;;13.75;100.00;97302.63;5058877;28;20126;-74
2023/10/20 03:18:49;;;;;;;26.27;18.27;;;;;;;13.79;100.00;97297.81;5061695;28;20048;-72
2023/10/20 03:21:18;;;;;;;26.48;17.33;;;;;;;13.76;100.00;97292.81;5062426;28;20094;-73
2023/10/20 03:23:48;;;;;;;26.08;16.75;;;;;;;13.71;100.00;97287.97;5056696;28;20154;-73
2023/10/20 03:26:18;;;;;;;25.92;17.67;;;;;;;13.75;100.00;97286.66;5057359;28;20044;-73
2023/10/20 03:28:46;;;;;;;26.90;18.05;;;;;;;13.73;100.00;97287.81;5060390;28;20053;-73
2023/10/20 03:31:15;;;;;;;30.17;19.08;;;;;;;13.69;100.00;97282.03;5064573;28;20040;-73
2023/10/20 03:33:43;;;;;;;24.58;16.60;;;;;;;13.72;100.00;97284.31;5064368;28;20040;-72
2023/10/20 03:36:12;;;;;;;28.92;19.27;;;;;;;13.69;100.00;97279.38;5041832;28;20098;-73
2023/10/20 03:38:40;;;;;;;25.38;18.00;;;;;;;13.65;100.00;97278.88;5049919;28;20067;-73
2023/10/20 03:41:10;;;;;;;26.20;17.75;;;;;;;13.65;100.00;97276.22;5061907;28;20138;-73
2023/10/20 03:43:39;;;;;;;26.70;17.88;;;;;;;13.66;100.00;97266.41;5055454;28;20063;-72
2023/10/20 03:46:07;;;;;;;26.80;18.25;;;;;;;13.61;100.00;97252.78;5058502;28;20052;-72
2023/10/20 03:48:35;;;;;;;27.90;17.85;;;;;;;13.62;100.00;97257.91;5061074;28;20033;-73
2023/10/20 03:51:07;;;;;;;29.38;18.52;;;;;;;13.60;100.00;97243.13;5068502;28;20048;-72
2023/10/20 03:53:45;;;;;;;25.92;16.92;;;;;;;13.58;100.00;97242.47;5031836;28;20424;-72
2023/10/20 03:56:14;;;;;;;26.27;18.05;;;;;;;13.56;100.00;97231.16;5051428;28;20036;-72
2023/10/20 03:58:46;;;;;;;33.70;21.38;;;;;;;13.51;100.00;97214.91;5039917;28;20087;-72
2023/10/20 04:01:14;;;;;;;31.25;20.45;;;;;;;13.49;100.00;97225.69;5059977;28;20048;-72
2023/10/20 04:03:49;;;;;;;31.83;20.40;;;;;;;13.47;100.00;97219.72;5062367;28;20051;-72
2023/10/20 04:06:19;;;;;;;35.15;21.70;;;;;;;13.43;100.00;97210.41;5050694;28;20044;-72
2023/10/20 04:08:47;;;;;;;36.33;20.95;;;;;;;13.44;100.00;97206.75;5056032;28;20065;-73
2023/10/20 04:11:14;;;;;;;31.02;20.42;;;;;;;13.41;100.00;97204.44;5064524;28;20040;-72
2023/10/20 04:13:44;;;;;;;31.50;19.92;;;;;;;13.41;100.00;97192.97;5062925;28;20040;-72
2023/10/20 04:16:13;;;;;;;35.27;21.77;;;;;;;13.42;100.00;97187.47;5060251;28;20537;-73
2023/10/20 04:18:42;;;;;;;33.08;20.10;;;;;;;13.34;100.00;97168.91;5074474;28;20467;-72
2023/10/20 04:21:11;;;;;;;32.42;20.48;;;;;;;13.39;100.00;97155.09;5079126;28;20040;-73
2023/10/20 04:23:40;;;;;;;33.53;20.98;;;;;;;13.40;100.00;97160.25;5070573;28;20071;-73
2023/10/20 04:26:18;;;;;;;31.90;20.90;;;;;;;13.38;100.00;97151.59;5061696;28;20506;-73
2023/10/20 04:29:02;;;;;;;39.72;23.67;;;;;;;13.41;100.00;97135.31;5058737;28;20107;-73
2023/10/20 04:42:55;;;;;;;36.47;23.30;;;;;;;13.26;100.00;97108.63;5060922;28;20037;-74
2023/10/20 04:48:31;;;;;;;38.63;22.63;;;;;;;13.25;100.00;97098.97;5062549;28;20005;-74
2023/10/20 04:51:09;;;;;;;36.15;23.10;;;;;;;13.13;100.00;97071.06;5058601;28;20045;-75
2023/10/20 04:53:48;;;;;;;39.95;25.38;;;;;;;13.20;100.00;97069.44;5055481;28;20095;-73
2023/10/20 04:56:31;;;;;;;36.20;22.98;;;;;;;13.26;100.00;97073.25;5052529;28;20036;-73
2023/10/20 04:59:04;;;;;;;40.42;24.52;;;;;;;13.22;100.00;97062.13;5062568;28;20052;-73
2023/10/20 05:01:43;;;;;;;39.50;24.92;;;;;;;13.18;100.00;97054.66;5049107;28;20049;-73
2023/10/20 05:04:16;;;;;;;42.72;26.40;;;;;;;13.24;100.00;97059.28;5055867;28;21234;-73
2023/10/20 05:06:44;;;;;;;38.25;24.35;;;;;;;13.24;100.00;97068.09;5058382;28;20404;-74
2023/10/20 05:09:15;;;;;;;40.72;23.85;;;;;;;13.21;100.00;97070.28;5063659;28;20052;-73
2023/10/20 05:11:43;;;;;;;;;;;;;;;13.23;100.00;97068.25;5065030;28;20040;-74
2023/10/20 05:14:10;;;;;;;42.28;26.00;;;;;;;13.10;100.00;97052.81;5053919;28;20003;-74
2023/10/20 05:16:40;;;;;;;46.17;25.65;;;;;;;13.15;100.00;97060.31;5057615;28;20419;-74
2023/10/20 05:19:07;;;;;;;41.67;24.52;;;;;;;13.13;100.00;97051.66;5061443;28;20072;-74
2023/10/20 05:21:38;;;;;;;40.67;25.45;;;;;;;13.15;100.00;97039.06;5060824;28;20029;-73
2023/10/20 05:24:06;;;;;;;42.72;25.83;;;;;;;13.15;100.00;97034.59;5063777;28;20501;-73
2023/10/20 05:26:36;;;;;;;34.92;22.10;;;;;;;13.13;100.00;97025.09;5053632;28;20072;-74
2023/10/20 05:29:04;;;;;;;45.10;25.92;;;;;;;13.08;100.00;97008.81;5057085;28;20044;-73
2023/10/20 05:31:32;;;;;;;43.00;25.30;;;;;;;13.11;100.00;97003.16;5067414;28;20045;-74
2023/10/20 05:34:02;;;;;;;48.30;26.48;;;;;;;13.15;100.00;96991.25;5065909;28;20048;-73
2023/10/20 05:36:30;;;;;;;39.78;25.02;;;;;;;13.15;100.00;96994.72;5058773;28;20040;-73
2023/10/20 05:38:59;;;;;;;42.35;24.05;;;;;;;13.12;100.00;96978.28;5060450;28;20076;-73
2023/10/20 05:41:29;;;;;;;41.42;25.63;;;;;;;13.11;100.00;96981.91;5066383;28;20040;-73
2023/10/20 05:43:58;;;;;;;39.00;23.83;;;;;;;13.12;100.00;96981.75;5065791;28;20076;-73
2023/10/20 05:46:26;;;;;;;39.03;25.20;;;;;;;13.09;100.00;96966.16;5052463;28;20040;-74
2023/10/20 05:48:53;;;;;;;42.83;25.30;;;;;;;13.09;100.00;96966.16;5062757;28;20059;-73
2023/10/20 05:51:23;;;;;;;37.08;23.95;;;;;;;13.05;100.00;96959.53;5061660;28;20425;-73
2023/10/20 05:53:53;;;;;;;39.07;24.60;;;;;;;13.07;100.00;96946.91;5059502;28;20041;-73
2023/10/20 05:56:21;;;;;;;36.90;24.13;;;;;;;13.08;100.00;96932.63;5053818;28;21076;-73
2023/10/20 05:58:50;;;;;;;36.60;24.63;;;;;;;13.08;100.00;96924.66;5062523;28;20518;-73
2023/10/20 06:01:18;;;;;;;34.22;22.67;;;;;;;12.96;100.00;96900.31;5050050;28;20125;-72
2023/10/20 06:03:46;;;;;;;33.65;23.20;;;;;;;13.03;100.00;96902.28;5066238;28;20063;-74
2023/10/20 06:06:14;;;;;;;40.05;24.45;;;;;;;13.04;100.00;96909.25;5061410;28;20109;-72
2023/10/20 06:08:43;;;;;;;37.80;23.95;;;;;;;13.06;100.00;96929.34;5058560;28;20468;-72
2023/10/20 06:11:11;;;;;;;34.30;23.52;;;;;;;12.99;100.00;96923.88;5059619;28;20513;-72
2023/10/20 06:13:39;;;;;;;42.30;24.58;;;;;;;12.99;100.00;96938.97;5060275;28;20047;-72
2023/10/20 06:16:09;;;;;;;34.30;23.23;;;;;;;13.04;100.00;96949.91;5050164;28;20060;-72
2023/10/20 06:18:39;;;;;;;35.30;23.15;;;;;;;13.02;100.00;96953.75;5057455;28;20115;-73
2023/10/20 06:21:12;;;;;;;35.05;24.48;;;;;;;13.04;100.00;96947.25;5061474;28;20076;-72
2023/10/20 06:23:41;;;;;;;33.20;23.02;;;;;;;13.04;100.00;96941.94;5072232;28;20123;-73
2023/10/20 06:26:10;;;;;;;40.17;24.10;;;;;;;13.05;100.00;96934.81;5063541;28;20045;-73
2023/10/20 06:28:38;;;;;;;35.55;24.60;;;;;;;13.06;100.00;96925.84;5061496;28;20048;-73
2023/10/20 06:31:27;;;;;;;40.92;24.42;;;;;;;13.00;100.00;96930.00;5061160;28;20493;-72
2023/10/20 06:34:00;;;;;;;38.22;24.05;;;;;;;12.99;100.00;96937.16;5061718;28;20131;-73
2023/10/20 06:36:28;;;;;;;38.35;25.35;;;;;;;13.00;100.00;96935.31;5052450;28;20634;-74
2023/10/20 06:38:56;;;;;;;33.08;22.60;;;;;;;12.99;100.00;96925.69;5060854;28;20048;-72
2023/10/20 06:41:26;;;;;;;41.05;26.10;;;;;;;12.83;100.00;96893.88;5042921;28;20065;-74
2023/10/20 06:43:54;;;;;;;35.83;25.77;;;;;;;12.97;100.00;96917.88;5058973;28;20045;-74
2023/10/20 06:46:24;;;;;;;37.42;24.75;;;;;;;12.90;100.00;96895.69;5048503;28;20048;-73
2023/10/20 06:48:52;;;;;;;37.25;25.38;;;;;;;12.93;100.00;96892.66;5046850;28;20083;-75
2023/10/20 06:51:20;;;;;;;43.22;26.83;;;;;;;12.90;100.00;96876.28;5061759;28;20037;-73
2023/10/20 06:53:48;;;;;;;36.90;25.05;;;;;;;12.88;100.00;96855.19;5058932;28;20060;-73
2023/10/20 06:56:17;;;;;;;42.75;26.90;;;;;;;12.86;100.00;96843.09;5049188;28;20394;-72
2023/10/20 06:58:53;;;;;;;40.90;26.88;;;;;;;12.87;100.00;96839.44;5064419;28;20402;-72
2023/10/20 07:01:22;;;;;;;37.78;25.52;;;;;;;12.83;100.00;96828.34;5042419;28;20048;-73
2023/10/20 07:03:50;;;;;;;42.45;26.85;;;;;;;12.81;100.00;96819.72;5062318;28;20052;-73
2023/10/20 07:06:18;;;;;;;42.15;26.17;;;;;;;12.75;100.00;96806.31;5048560;28;20057;-74
2023/10/20 07:08:48;;;;;;;37.65;26.75;;;;;;;12.67;100.00;96780.63;5059915;28;20212;-74
2023/10/20 07:11:16;;;;;;;38.60;26.60;;;;;;;12.78;100.00;96785.53;5059621;28;20098;-74
2023/10/20 07:13:44;;;;;;;38.92;26.75;;;;;;;12.67;100.00;96763.88;5059554;28;20470;-74
2023/10/20 07:16:14;;;;;;;36.85;25.30;;;;;;;12.82;100.00;96789.50;5057267;28;20160;-74
2023/10/20 07:18:42;;;;;;;39.65;26.23;;;;;;;12.82;100.00;96789.50;5050752;28;20092;-72
2023/10/20 07:21:11;;;;;;;41.70;26.20;;;;;;;12.86;100.00;96785.50;5060334;28;20451;-74
2023/10/20 07:23:39;;;;;;;34.80;25.00;;;;;;;12.86;100.00;96772.22;5061650;28;20060;-74
2023/10/20 07:26:07;;;;;;;39.78;24.88;;;;;;;12.85;100.00;96775.88;5050608;28;20129;-74
2023/10/20 07:28:35;;;;;;;38.70;24.42;;;;;;;12.86;100.00;96774.88;5053799;28;20057;-74
2023/10/20 07:31:12;;;;;;;35.72;25.08;;;;;;;12.81;100.00;96773.75;5058627;28;20068;-72
2023/10/20 07:33:41;;;;;;;37.30;24.35;;;;;;;12.82;100.00;96786.84;5062874;28;20060;-72
2023/10/20 07:36:10;;;;;;;37.20;25.45;;;;;;;12.81;100.00;96777.22;5049240;28;20040;-73
2023/10/20 07:38:39;;;;;;;35.80;25.08;;;;;;;12.75;100.00;96783.22;5060141;28;20156;-72
2023/10/20 07:41:09;;;;;;;35.45;24.33;;;;;;;12.74;100.00;96791.38;5055786;28;20049;-73
2023/10/20 07:43:39;;;;;;;38.65;24.83;;;;;;;12.81;100.00;96798.47;5055526;28;20049;-71
2023/10/20 07:46:15;;;;;;;32.25;22.52;;;;;;;12.81;100.00;96795.81;5050059;28;20400;-74
2023/10/20 07:48:44;;;;;;;38.53;25.70;;;;;;;12.77;100.00;96783.88;5050647;28;20036;-73
2023/10/20 07:51:12;;;;;;;40.47;24.95;;;;;;;12.83;100.00;96785.84;5053892;28;20041;-73
2023/10/20 07:53:41;;;;;;;40.28;25.92;;;;;;;12.85;100.00;96791.81;5055299;28;20048;-72
2023/10/20 07:56:09;;;;;;;38.28;24.10;;;;;;;12.74;100.00;96776.28;5050958;28;20425;-72
2023/10/20 07:58:37;;;;;;;38.22;25.23;;;;;;;12.88;100.00;96785.34;5050973;28;20116;-72
2023/10/20 08:01:06;;;;;;;38.55;26.02;;;;;;;12.87;100.00;96781.84;5053134;28;20049;-74
2023/10/20 08:03:34;;;;;;;39.70;26.00;;;;;;;12.88;100.00;96775.53;5041156;28;20051;-73
2023/10/20 08:06:05;;;;;;;38.08;25.48;;;;;;;12.89;100.00;96781.69;5053300;28;20048;-71
2023/10/20 08:08:34;;;;;;;38.20;24.55;;;;;;;12.90;100.00;96778.84;5051076;28;20079;-72
2023/10/20 08:11:06;;;;;;;34.85;24.23;;;;;;;12.94;100.00;96771.34;5048268;28;20055;-71
2023/10/20 08:13:34;;;;;;;36.17;25.55;;;;;;;12.94;100.00;96750.94;5054168;28;20483;-72
2023/10/20 08:16:03;;;;;;;35.33;24.38;;;;;;;13.05;100.00;96746.22;5053005;28;20989;-73
2023/10/20 08:18:34;;;;;;;37.05;24.83;;;;;;;13.09;100.00;96747.50;5050083;28;20692;-73
2023/10/20 08:21:10;;;;;;;40.45;27.48;;;;;;;13.04;100.00;96744.56;5058472;28;20055;-73
2023/10/20 08:23:39;;;;;;;32.58;24.50;;;;;;;13.10;100.00;96749.16;5059953;28;20048;-73
2023/10/20 08:26:14;;;;;;;33.92;24.15;;;;;;;13.11;100.00;96756.97;5051988;28;20049;-73
2023/10/20 08:28:41;;;;;;;37.70;24.30;;;;;;;13.10;100.00;96765.09;5059330;28;20041;-74
2023/10/20 08:31:13;;;;;;;31.95;22.65;;;;;;;13.06;100.00;96763.81;5059280;28;20044;-73
2023/10/20 08:33:41;;;;;;;37.50;24.40;;;;;;;13.02;100.00;96763.34;5069278;28;20037;-72
2023/10/20 08:36:12;;;;;;;32.83;22.48;;;;;;;12.93;100.00;96754.59;5067109;28;20053;-74
2023/10/20 08:38:41;;;;;;;33.50;23.67;;;;;;;13.05;100.00;96754.19;5057584;28;20072;-72
2023/10/20 08:41:10;;;;;;;32.58;23.48;;;;;;;13.21;100.00;96778.88;5057173;28;20045;-72
2023/10/20 08:43:41;;;;;;;31.60;23.65;;;;;;;13.29;100.00;96780.63;5059673;28;20048;-74
2023/10/20 08:46:10;;;;;;;30.63;22.08;;;;;;;13.33;100.00;96792.56;5056265;28;20049;-72
2023/10/20 08:48:39;;;;;;;27.85;21.13;;;;;;;13.39;100.00;96789.19;5056400;28;20081;-72
2023/10/20 08:51:08;;;;;;;34.38;22.05;;;;;;;13.42;100.00;96791.47;5063089;28;20547;-71
2023/10/20 08:53:38;;;;;;;31.45;22.83;;;;;;;13.45;100.00;96783.16;5061625;28;20045;-71
2023/10/20 08:56:07;;;;;;;29.48;21.95;;;;;;;13.40;100.00;96777.53;5058069;28;20044;-71
2023/10/20 08:58:36;;;;;;;30.33;22.23;;;;;;;13.50;100.00;96794.09;5052184;28;20128;-71
2023/10/20 09:01:06;;;;;;;29.50;21.88;;;;;;;13.48;100.00;96780.16;5054752;28;20572;-71
2023/10/20 09:03:40;;;;;;;28.17;20.70;;;;;;;13.46;100.00;96776.03;5061346;28;20461;-75
2023/10/20 09:06:12;;;;;;;26.35;20.85;;;;;;;13.53;100.00;96792.91;5066572;28;20297;-70
2023/10/20 09:08:43;;;;;;;24.45;19.38;;;;;;;13.51;100.00;96809.03;5055906;28;20037;-73
2023/10/20 09:11:12;;;;;;;28.75;21.52;;;;;;;13.54;100.00;96805.19;5066148;28;20048;-72
2023/10/20 09:13:44;;;;;;;30.02;21.75;;;;;;;13.56;100.00;96806.66;5062333;28;20039;-73
2023/10/20 09:16:15;;;;;;;30.48;21.67;;;;;;;13.71;100.00;96814.69;5062602;28;20489;-72
2023/10/20 09:18:49;;;;;;;28.17;20.98;;;;;;;13.80;100.00;96812.81;5061738;28;20036;-71
2023/10/20 09:21:18;;;;;;;29.90;22.40;;;;;;;13.83;100.00;96815.94;5075081;28;20075;-73
2023/10/20 09:23:59;;;;;;;26.40;21.05;;;;;;;13.81;100.00;96804.66;5070531;28;20502;-71
2023/10/20 09:26:30;;;;;;;30.27;21.35;;;;;;;13.83;100.00;96807.97;5062590;28;20087;-72
2023/10/20 09:28:58;;;;;;;27.70;20.00;;;;;;;13.92;100.00;96809.53;5063636;28;20047;-73
2023/10/20 09:31:30;;;;;;;27.17;19.63;;;;;;;14.00;100.00;96811.31;5071744;28;20037;-72
2023/10/20 09:33:59;;;;;;;26.23;19.52;;;;;;;13.99;100.00;96821.13;5072948;28;20079;-73
2023/10/20 09:36:31;;;;;;;23.70;18.83;;;;;;;14.01;100.00;96819.06;5063830;28;20047;-73
2023/10/20 09:39:05;;;;;;;26.80;20.27;;;;;;;14.02;100.00;96822.56;5070735;28;20049;-73
2023/10/20 09:41:37;;;;;;;23.35;19.02;;;;;;;13.92;100.00;96814.84;5073481;28;20029;-74
2023/10/20 09:44:07;;;;;;;23.55;19.33;;;;;;;13.89;100.00;96814.38;5070066;28;20101;-74
2023/10/20 09:46:43;;;;;;;28.55;20.50;;;;;;;13.92;100.00;96814.84;5063451;28;20044;-73
2023/10/20 09:49:19;;;;;;;25.30;19.77;;;;;;;13.92;100.00;96822.81;5069982;28;20043;-74
2023/10/20 09:51:49;;;;;;;26.75;20.63;;;;;;;13.90;100.00;96816.03;5068432;28;20068;-76
2023/10/20 09:54:25;;;;;;;25.73;20.38;;;;;;;13.95;100.00;96817.16;5066633;28;20048;-74
2023/10/20 09:56:55;;;;;;;27.13;19.65;;;;;;;13.94;100.00;96798.72;5063338;28;20653;-74
2023/10/20 09:59:27;;;;;;;25.38;20.27;;;;;;;14.06;100.00;96805.25;5068412;28;20069;-74
2023/10/20 10:01:58;;;;;;;28.30;20.85;;;;;;;14.19;100.00;96823.22;5064740;28;20045;-75
2023/10/20 10:04:33;;;;;;;27.45;21.48;;;;;;;14.17;100.00;96852.69;5065749;28;20127;-74
2023/10/20 10:07:04;;;;;;;30.13;20.73;;;;;;;14.41;100.00;96894.25;5063744;28;20112;-73
2023/10/20 10:09:39;;;;;;;31.15;21.88;;;;;;;14.32;100.00;96890.78;5062235;28;20045;-74
2023/10/20 10:12:14;;;;;;;28.70;22.50;;;;;;;14.32;100.00;96895.31;5070434;28;20051;-76
2023/10/20 10:14:54;;;;;;;31.65;23.05;;;;;;;14.32;100.00;96909.41;5060943;28;20032;-75
2023/10/20 10:17:26;;;;;;;53.63;43.72;;;;;;;14.28;100.00;96904.66;5056199;28;20041;-74
2023/10/20 10:19:56;;;;;;;28.45;22.83;;;;;;;14.21;100.00;96914.34;5067282;28;20151;-75
2023/10/20 10:22:28;;;;;;;31.23;21.92;;;;;;;14.11;100.00;96913.78;5060093;28;20542;-74
2023/10/20 10:25:00;;;;;;;28.73;21.42;;;;;;;14.10;100.00;96912.97;5060070;28;20041;-75
2023/10/20 10:27:32;;;;;;;31.50;21.70;;;;;;;13.95;100.00;96901.44;5056488;28;20032;-74
2023/10/20 10:30:05;;;;;;;40.60;30.47;;;;;;;14.01;100.00;96906.03;5059136;28;20116;-73
2023/10/20 10:32:34;;;;;;;35.13;25.63;;;;;;;14.12;100.00;96889.66;5061569;28;20532;-74
2023/10/20 10:35:03;;;;;;;32.05;22.55;;;;;;;14.42;100.00;96889.75;5062602;28;20090;-73
2023/10/20 10:37:34;;;;;;;33.10;23.85;;;;;;;14.52;100.00;96874.34;5054275;28;20037;-74
2023/10/20 10:40:08;;;;;;;31.15;23.73;;;;;;;14.54;100.00;96859.84;5060073;28;20145;-73
2023/10/20 10:42:43;;;;;;;26.30;20.70;;;;;;;14.53;100.00;96855.53;5057583;28;20041;-74
2023/10/20 10:45:22;;;;;;;27.30;21.38;;;;;;;14.59;100.00;96853.97;5059616;28;20119;-73
2023/10/20 10:47:52;;;;;;;27.77;20.25;;;;;;;14.66;100.00;96858.38;5054728;28;20102;-73
2023/10/20 10:50:21;;;;;;;29.00;21.10;;;;;;;14.77;100.00;96862.44;5059931;28;20056;-75
2023/10/20 10:52:52;;;;;;;26.98;20.95;;;;;;;14.82;100.00;96859.19;5063058;28;20139;-74
2023/10/20 10:55:25;;;;;;;25.25;20.90;;;;;;;14.78;100.00;96828.63;5060350;28;20135;-73
2023/10/20 10:57:54;;;;;;;;;;;;;;;14.99;100.00;96858.81;5063552;28;20052;-73
2023/10/20 11:00:27;;;;;;;23.58;18.42;;;;;;;15.02;100.00;96849.63;5039868;28;19931;-73
2023/10/20 11:02:58;;;;;;;23.75;19.08;;;;;;;14.81;100.00;96815.75;5060228;28;20526;-75
2023/10/20 11:05:27;;;;;;;25.58;18.83;;;;;;;14.95;100.00;96844.22;5067224;28;20044;-74
2023/10/20 11:08:01;;;;;;;23.55;19.23;;;;;;;14.95;100.00;96846.88;5062438;28;20053;-73
2023/10/20 11:10:34;;;;;;;23.60;19.27;;;;;;;14.95;100.00;96849.53;5064531;28;20146;-73
2023/10/20 11:13:07;;;;;;;22.13;17.77;;;;;;;14.97;100.00;96865.34;5065056;28;20166;-73
2023/10/20 11:15:35;;;;;;;24.38;18.45;;;;;;;14.90;100.00;96838.63;5071483;28;20064;-72
2023/10/20 11:18:05;;;;;;;23.00;19.27;;;;;;;15.15;100.00;96862.28;5070891;28;20083;-73
2023/10/20 11:20:37;;;;;;;24.90;19.90;;;;;;;15.27;100.00;96864.28;5077892;28;20841;-75
2023/10/20 11:23:07;;;;;;;23.80;19.75;;;;;;;15.24;100.00;96862.00;5080038;28;20061;-73
2023/10/20 11:25:40;;;;;;;20.98;17.13;;;;;;;15.04;100.00;96821.78;5057876;28;20102;-74
2023/10/20 11:28:16;;;;;;;23.23;18.67;;;;;;;15.26;100.00;96841.34;5059666;28;20041;-73
2023/10/20 11:30:45;;;;;;;21.27;17.75;;;;;;;15.44;100.00;96843.56;5066065;28;20045;-73
2023/10/20 11:33:15;;;;;;;21.92;17.98;;;;;;;15.65;100.00;96866.78;5061946;28;20047;-73
2023/10/20 11:35:45;;;;;;;20.52;17.67;;;;;;;15.69;100.00;96849.41;5064539;28;20111;-73